sensor_id;sensor_type;location;lat;lon;timestamp;pressure;altitude;pressure_sealevel;temperature
15607;BMP180;7865;50.918;4.510;2023-12-20T00:01:08;101227.00;;;5.10
15607;BMP180;7865;50.918;4.510;2023-12-20T00:06:10;101244.00;;;5.20
15607;BMP180;7865;50.918;4.510;2023-12-20T00:11:11;101250.00;;;5.20
15607;BMP180;7865;50.918;4.510;2023-12-20T00:16:12;101240.00;;;5.20
15607;BMP180;7865;50.918;4.510;2023-12-20T00:21:13;101239.00;;;5.20
15607;BMP180;7865;50.918;4.510;2023-12-20T00:26:14;101237.00;;;5.10
15607;BMP180;7865;50.918;4.510;2023-12-20T00:31:16;101239.00;;;5.10
15607;BMP180;7865;50.918;4.510;2023-12-20T00:36:17;101253.00;;;5.10
15607;BMP180;7865;50.918;4.510;2023-12-20T00:41:18;101240.00;;;5.00
15607;BMP180;7865;50.918;4.510;2023-12-20T00:46:19;101246.00;;;5.00
15607;BMP180;7865;50.918;4.510;2023-12-20T00:51:21;101254.00;;;4.90
15607;BMP180;7865;50.918;4.510;2023-12-20T00:56:23;101241.00;;;4.90
15607;BMP180;7865;50.918;4.510;2023-12-20T01:01:24;101239.00;;;4.90
15607;BMP180;7865;50.918;4.510;2023-12-20T01:06:26;101246.00;;;4.90
15607;BMP180;7865;50.918;4.510;2023-12-20T01:11:27;101238.00;;;4.90
15607;BMP180;7865;50.918;4.510;2023-12-20T01:16:28;101249.00;;;4.80
15607;BMP180;7865;50.918;4.510;2023-12-20T01:21:30;101250.00;;;4.80
15607;BMP180;7865;50.918;4.510;2023-12-20T01:26:31;101245.00;;;4.80
15607;BMP180;7865;50.918;4.510;2023-12-20T01:31:32;101256.00;;;4.80
15607;BMP180;7865;50.918;4.510;2023-12-20T01:36:34;101253.00;;;4.80
15607;BMP180;7865;50.918;4.510;2023-12-20T01:41:35;101265.00;;;4.80
15607;BMP180;7865;50.918;4.510;2023-12-20T01:46:36;101273.00;;;4.80
15607;BMP180;7865;50.918;4.510;2023-12-20T01:51:38;101271.00;;;4.80
15607;BMP180;7865;50.918;4.510;2023-12-20T01:56:40;101276.00;;;4.80
15607;BMP180;7865;50.918;4.510;2023-12-20T02:01:41;101270.00;;;4.90
15607;BMP180;7865;50.918;4.510;2023-12-20T02:06:43;101270.00;;;4.90
15607;BMP180;7865;50.918;4.510;2023-12-20T02:11:45;101266.00;;;4.90
15607;BMP180;7865;50.918;4.510;2023-12-20T02:16:48;101276.00;;;4.90
15607;BMP180;7865;50.918;4.510;2023-12-20T02:21:49;101263.00;;;4.90
15607;BMP180;7865;50.918;4.510;2023-12-20T02:26:50;101278.00;;;4.80
15607;BMP180;7865;50.918;4.510;2023-12-20T02:31:51;101271.00;;;4.90
15607;BMP180;7865;50.918;4.510;2023-12-20T02:36:52;101271.00;;;5.00
15607;BMP180;7865;50.918;4.510;2023-12-20T02:41:54;101280.00;;;5.10
15607;BMP180;7865;50.918;4.510;2023-12-20T02:46:55;101292.00;;;5.10
15607;BMP180;7865;50.918;4.510;2023-12-20T02:51:56;101283.00;;;5.20
15607;BMP180;7865;50.918;4.510;2023-12-20T02:56:57;101284.00;;;5.10
15607;BMP180;7865;50.918;4.510;2023-12-20T03:01:58;101286.00;;;5.20
15607;BMP180;7865;50.918;4.510;2023-12-20T03:07:00;101276.00;;;5.20
15607;BMP180;7865;50.918;4.510;2023-12-20T03:12:02;101267.00;;;5.20
15607;BMP180;7865;50.918;4.510;2023-12-20T03:17:03;101263.00;;;5.10
15607;BMP180;7865;50.918;4.510;2023-12-20T03:22:04;101248.00;;;5.20
15607;BMP180;7865;50.918;4.510;2023-12-20T03:27:05;101244.00;;;5.20
15607;BMP180;7865;50.918;4.510;2023-12-20T03:32:06;101257.00;;;5.20
15607;BMP180;7865;50.918;4.510;2023-12-20T03:37:09;101267.00;;;5.10
15607;BMP180;7865;50.918;4.510;2023-12-20T03:42:10;101257.00;;;5.20
15607;BMP180;7865;50.918;4.510;2023-12-20T03:47:14;101257.00;;;5.20
15607;BMP180;7865;50.918;4.510;2023-12-20T03:52:15;101265.00;;;5.30
15607;BMP180;7865;50.918;4.510;2023-12-20T03:57:16;101251.00;;;5.40
15607;BMP180;7865;50.918;4.510;2023-12-20T04:02:17;101269.00;;;5.50
15607;BMP180;7865;50.918;4.510;2023-12-20T04:07:18;101269.00;;;5.50
15607;BMP180;7865;50.918;4.510;2023-12-20T04:12:20;101251.00;;;5.40
15607;BMP180;7865;50.918;4.510;2023-12-20T04:17:21;101246.00;;;5.40
15607;BMP180;7865;50.918;4.510;2023-12-20T04:22:25;101255.00;;;5.30
15607;BMP180;7865;50.918;4.510;2023-12-20T04:27:26;101258.00;;;5.20
15607;BMP180;7865;50.918;4.510;2023-12-20T04:32:27;101258.00;;;5.10
15607;BMP180;7865;50.918;4.510;2023-12-20T04:37:29;101267.00;;;5.10
15607;BMP180;7865;50.918;4.510;2023-12-20T04:42:30;101259.00;;;5.00
15607;BMP180;7865;50.918;4.510;2023-12-20T04:47:31;101274.00;;;5.00
15607;BMP180;7865;50.918;4.510;2023-12-20T04:52:32;101271.00;;;5.10
15607;BMP180;7865;50.918;4.510;2023-12-20T04:57:34;101274.00;;;5.10
15607;BMP180;7865;50.918;4.510;2023-12-20T05:02:36;101265.00;;;5.00
15607;BMP180;7865;50.918;4.510;2023-12-20T05:07:37;101269.00;;;4.90
15607;BMP180;7865;50.918;4.510;2023-12-20T05:12:38;101260.00;;;4.90
15607;BMP180;7865;50.918;4.510;2023-12-20T05:17:40;101260.00;;;4.90
15607;BMP180;7865;50.918;4.510;2023-12-20T05:22:41;101256.00;;;4.90
15607;BMP180;7865;50.918;4.510;2023-12-20T05:27:43;101254.00;;;4.90
15607;BMP180;7865;50.918;4.510;2023-12-20T05:32:44;101258.00;;;4.80
15607;BMP180;7865;50.918;4.510;2023-12-20T05:37:46;101259.00;;;4.90
15607;BMP180;7865;50.918;4.510;2023-12-20T05:42:47;101270.00;;;4.90
15607;BMP180;7865;50.918;4.510;2023-12-20T05:47:49;101270.00;;;4.80
15607;BMP180;7865;50.918;4.510;2023-12-20T05:52:50;101265.00;;;4.80
15607;BMP180;7865;50.918;4.510;2023-12-20T05:57:51;101268.00;;;4.90
15607;BMP180;7865;50.918;4.510;2023-12-20T06:02:53;101281.00;;;4.90
15607;BMP180;7865;50.918;4.510;2023-12-20T06:07:54;101283.00;;;4.90
15607;BMP180;7865;50.918;4.510;2023-12-20T06:12:57;101287.00;;;4.90
15607;BMP180;7865;50.918;4.510;2023-12-20T06:18:01;101274.00;;;4.90
15607;BMP180;7865;50.918;4.510;2023-12-20T06:23:03;101283.00;;;4.80
15607;BMP180;7865;50.918;4.510;2023-12-20T06:28:04;101295.00;;;5.00
15607;BMP180;7865;50.918;4.510;2023-12-20T06:33:06;101293.00;;;5.10
15607;BMP180;7865;50.918;4.510;2023-12-20T06:38:07;101295.00;;;5.10
15607;BMP180;7865;50.918;4.510;2023-12-20T06:43:10;101297.00;;;5.10
15607;BMP180;7865;50.918;4.510;2023-12-20T06:48:27;101295.00;;;5.10
15607;BMP180;7865;50.918;4.510;2023-12-20T06:53:28;101279.00;;;4.90
15607;BMP180;7865;50.918;4.510;2023-12-20T06:58:29;101272.00;;;4.70
15607;BMP180;7865;50.918;4.510;2023-12-20T07:03:30;101268.00;;;4.60
15607;BMP180;7865;50.918;4.510;2023-12-20T07:08:32;101269.00;;;4.50
15607;BMP180;7865;50.918;4.510;2023-12-20T07:13:33;101271.00;;;4.50
15607;BMP180;7865;50.918;4.510;2023-12-20T07:18:34;101276.00;;;4.50
15607;BMP180;7865;50.918;4.510;2023-12-20T07:23:36;101268.00;;;4.40
15607;BMP180;7865;50.918;4.510;2023-12-20T07:28:37;101275.00;;;4.40
15607;BMP180;7865;50.918;4.510;2023-12-20T07:33:38;101275.00;;;4.30
15607;BMP180;7865;50.918;4.510;2023-12-20T07:38:41;101270.00;;;4.30
15607;BMP180;7865;50.918;4.510;2023-12-20T07:43:43;101260.00;;;4.30
15607;BMP180;7865;50.918;4.510;2023-12-20T07:48:44;101280.00;;;4.30
15607;BMP180;7865;50.918;4.510;2023-12-20T07:53:47;101273.00;;;4.30
15607;BMP180;7865;50.918;4.510;2023-12-20T07:58:48;101281.00;;;4.40
15607;BMP180;7865;50.918;4.510;2023-12-20T08:03:54;101293.00;;;4.40
15607;BMP180;7865;50.918;4.510;2023-12-20T08:08:56;101297.00;;;4.40
15607;BMP180;7865;50.918;4.510;2023-12-20T08:14:07;101294.00;;;4.50
15607;BMP180;7865;50.918;4.510;2023-12-20T08:19:08;101292.00;;;4.60
15607;BMP180;7865;50.918;4.510;2023-12-20T08:24:09;101299.00;;;4.70
15607;BMP180;7865;50.918;4.510;2023-12-20T08:29:13;101312.00;;;4.90
15607;BMP180;7865;50.918;4.510;2023-12-20T08:34:14;101313.00;;;5.20
15607;BMP180;7865;50.918;4.510;2023-12-20T08:39:16;101307.00;;;5.30
15607;BMP180;7865;50.918;4.510;2023-12-20T08:44:17;101309.00;;;5.40
15607;BMP180;7865;50.918;4.510;2023-12-20T08:49:18;101304.00;;;5.50
15607;BMP180;7865;50.918;4.510;2023-12-20T08:54:19;101290.00;;;5.40
15607;BMP180;7865;50.918;4.510;2023-12-20T08:59:21;101284.00;;;5.50
15607;BMP180;7865;50.918;4.510;2023-12-20T09:04:22;101268.00;;;5.70
15607;BMP180;7865;50.918;4.510;2023-12-20T09:09:23;101262.00;;;5.80
15607;BMP180;7865;50.918;4.510;2023-12-20T09:14:24;101270.00;;;6.00
15607;BMP180;7865;50.918;4.510;2023-12-20T09:19:25;101269.00;;;6.20
15607;BMP180;7865;50.918;4.510;2023-12-20T09:24:27;101278.00;;;6.40
15607;BMP180;7865;50.918;4.510;2023-12-20T09:29:29;101273.00;;;6.50
15607;BMP180;7865;50.918;4.510;2023-12-20T09:34:30;101272.00;;;6.70
15607;BMP180;7865;50.918;4.510;2023-12-20T09:39:32;101267.00;;;6.90
15607;BMP180;7865;50.918;4.510;2023-12-20T09:44:34;101269.00;;;7.10
15607;BMP180;7865;50.918;4.510;2023-12-20T09:49:36;101265.00;;;6.80
15607;BMP180;7865;50.918;4.510;2023-12-20T09:54:39;101259.00;;;6.80
15607;BMP180;7865;50.918;4.510;2023-12-20T09:59:40;101273.00;;;6.80
15607;BMP180;7865;50.918;4.510;2023-12-20T10:04:48;101273.00;;;7.00
15607;BMP180;7865;50.918;4.510;2023-12-20T10:09:57;101281.00;;;7.10
15607;BMP180;7865;50.918;4.510;2023-12-20T10:14:58;101283.00;;;7.20
15607;BMP180;7865;50.918;4.510;2023-12-20T10:20:01;101286.00;;;7.30
15607;BMP180;7865;50.918;4.510;2023-12-20T10:25:04;101285.00;;;7.30
15607;BMP180;7865;50.918;4.510;2023-12-20T10:30:06;101273.00;;;7.30
15607;BMP180;7865;50.918;4.510;2023-12-20T10:35:08;101273.00;;;7.40
15607;BMP180;7865;50.918;4.510;2023-12-20T10:40:10;101274.00;;;7.50
15607;BMP180;7865;50.918;4.510;2023-12-20T10:45:12;101270.00;;;7.60
15607;BMP180;7865;50.918;4.510;2023-12-20T10:50:14;101252.00;;;7.60
15607;BMP180;7865;50.918;4.510;2023-12-20T10:55:16;101250.00;;;7.70
15607;BMP180;7865;50.918;4.510;2023-12-20T11:00:18;101235.00;;;7.80
15607;BMP180;7865;50.918;4.510;2023-12-20T11:05:45;101229.00;;;7.90
15607;BMP180;7865;50.918;4.510;2023-12-20T11:15:59;101226.00;;;7.90
15607;BMP180;7865;50.918;4.510;2023-12-20T11:21:04;101221.00;;;7.80
15607;BMP180;7865;50.918;4.510;2023-12-20T11:26:06;101206.00;;;7.90
15607;BMP180;7865;50.918;4.510;2023-12-20T11:31:07;101204.00;;;7.90
15607;BMP180;7865;50.918;4.510;2023-12-20T11:36:16;101195.00;;;8.00
15607;BMP180;7865;50.918;4.510;2023-12-20T11:41:22;101188.00;;;8.10
15607;BMP180;7865;50.918;4.510;2023-12-20T11:46:24;101199.00;;;8.10
15607;BMP180;7865;50.918;4.510;2023-12-20T11:51:27;101198.00;;;7.90
15607;BMP180;7865;50.918;4.510;2023-12-20T11:56:30;101201.00;;;7.80
15607;BMP180;7865;50.918;4.510;2023-12-20T12:01:31;101184.00;;;7.70
15607;BMP180;7865;50.918;4.510;2023-12-20T12:06:33;101189.00;;;7.70
15607;BMP180;7865;50.918;4.510;2023-12-20T12:11:35;101186.00;;;7.80
15607;BMP180;7865;50.918;4.510;2023-12-20T12:16:36;101174.00;;;8.00
15607;BMP180;7865;50.918;4.510;2023-12-20T12:21:38;101153.00;;;8.00
15607;BMP180;7865;50.918;4.510;2023-12-20T12:26:50;101142.00;;;8.00
15607;BMP180;7865;50.918;4.510;2023-12-20T12:31:52;101162.00;;;8.00
15607;BMP180;7865;50.918;4.510;2023-12-20T12:36:53;101152.00;;;7.90
15607;BMP180;7865;50.918;4.510;2023-12-20T12:41:55;101154.00;;;7.90
15607;BMP180;7865;50.918;4.510;2023-12-20T12:46:56;101155.00;;;8.00
15607;BMP180;7865;50.918;4.510;2023-12-20T12:51:58;101143.00;;;8.00
15607;BMP180;7865;50.918;4.510;2023-12-20T12:56:59;101132.00;;;8.00
15607;BMP180;7865;50.918;4.510;2023-12-20T13:02:02;101123.00;;;8.30
15607;BMP180;7865;50.918;4.510;2023-12-20T13:07:04;101101.00;;;8.20
15607;BMP180;7865;50.918;4.510;2023-12-20T13:12:06;101086.00;;;8.20
15607;BMP180;7865;50.918;4.510;2023-12-20T13:17:08;101093.00;;;8.20
15607;BMP180;7865;50.918;4.510;2023-12-20T13:22:09;101089.00;;;8.40
15607;BMP180;7865;50.918;4.510;2023-12-20T13:27:11;101086.00;;;8.60
15607;BMP180;7865;50.918;4.510;2023-12-20T13:32:12;101076.00;;;8.50
15607;BMP180;7865;50.918;4.510;2023-12-20T13:37:13;101058.00;;;8.40
15607;BMP180;7865;50.918;4.510;2023-12-20T13:42:15;101064.00;;;8.30
15607;BMP180;7865;50.918;4.510;2023-12-20T13:47:16;101052.00;;;8.30
15607;BMP180;7865;50.918;4.510;2023-12-20T13:52:17;101034.00;;;8.30
15607;BMP180;7865;50.918;4.510;2023-12-20T13:57:19;101035.00;;;8.30
15607;BMP180;7865;50.918;4.510;2023-12-20T14:02:41;101028.00;;;8.20
15607;BMP180;7865;50.918;4.510;2023-12-20T14:07:43;101011.00;;;8.30
15607;BMP180;7865;50.918;4.510;2023-12-20T14:12:46;101016.00;;;8.30
15607;BMP180;7865;50.918;4.510;2023-12-20T14:17:47;101015.00;;;8.30
15607;BMP180;7865;50.918;4.510;2023-12-20T14:22:49;101011.00;;;8.50
15607;BMP180;7865;50.918;4.510;2023-12-20T14:27:50;100999.00;;;8.50
15607;BMP180;7865;50.918;4.510;2023-12-20T14:32:52;100995.00;;;8.40
15607;BMP180;7865;50.918;4.510;2023-12-20T14:37:53;101007.00;;;8.40
15607;BMP180;7865;50.918;4.510;2023-12-20T14:42:54;101007.00;;;8.40
15607;BMP180;7865;50.918;4.510;2023-12-20T14:47:56;101002.00;;;8.40
15607;BMP180;7865;50.918;4.510;2023-12-20T14:52:57;101009.00;;;8.30
15607;BMP180;7865;50.918;4.510;2023-12-20T14:57:58;100995.00;;;8.30
15607;BMP180;7865;50.918;4.510;2023-12-20T15:03:00;100993.00;;;8.30
15607;BMP180;7865;50.918;4.510;2023-12-20T15:08:02;101000.00;;;8.30
15607;BMP180;7865;50.918;4.510;2023-12-20T15:13:03;100987.00;;;8.30
15607;BMP180;7865;50.918;4.510;2023-12-20T15:18:05;100981.00;;;8.30
15607;BMP180;7865;50.918;4.510;2023-12-20T15:23:06;100993.00;;;8.30
15607;BMP180;7865;50.918;4.510;2023-12-20T15:28:09;100999.00;;;8.30
15607;BMP180;7865;50.918;4.510;2023-12-20T15:33:10;101010.00;;;8.30
15607;BMP180;7865;50.918;4.510;2023-12-20T15:38:12;101015.00;;;8.30
15607;BMP180;7865;50.918;4.510;2023-12-20T15:43:14;101023.00;;;8.30
15607;BMP180;7865;50.918;4.510;2023-12-20T15:48:15;101028.00;;;8.30
15607;BMP180;7865;50.918;4.510;2023-12-20T15:53:19;101032.00;;;8.30
15607;BMP180;7865;50.918;4.510;2023-12-20T15:58:20;101043.00;;;8.30
15607;BMP180;7865;50.918;4.510;2023-12-20T16:03:22;101032.00;;;8.10
15607;BMP180;7865;50.918;4.510;2023-12-20T16:08:26;101032.00;;;8.00
15607;BMP180;7865;50.918;4.510;2023-12-20T16:13:28;101023.00;;;7.90
15607;BMP180;7865;50.918;4.510;2023-12-20T16:18:30;101020.00;;;7.90
15607;BMP180;7865;50.918;4.510;2023-12-20T16:23:31;101006.00;;;7.90
15607;BMP180;7865;50.918;4.510;2023-12-20T16:28:33;101009.00;;;7.90
15607;BMP180;7865;50.918;4.510;2023-12-20T16:33:34;100995.00;;;8.00
15607;BMP180;7865;50.918;4.510;2023-12-20T16:38:35;100985.00;;;8.00
15607;BMP180;7865;50.918;4.510;2023-12-20T16:43:36;100963.00;;;8.10
15607;BMP180;7865;50.918;4.510;2023-12-20T16:48:38;100944.00;;;8.10
15607;BMP180;7865;50.918;4.510;2023-12-20T16:53:39;100939.00;;;7.90
15607;BMP180;7865;50.918;4.510;2023-12-20T16:58:40;100935.00;;;7.80
15607;BMP180;7865;50.918;4.510;2023-12-20T17:03:41;100928.00;;;7.80
15607;BMP180;7865;50.918;4.510;2023-12-20T17:08:43;100917.00;;;7.80
15607;BMP180;7865;50.918;4.510;2023-12-20T17:13:44;100916.00;;;7.90
15607;BMP180;7865;50.918;4.510;2023-12-20T17:18:45;100905.00;;;7.90
15607;BMP180;7865;50.918;4.510;2023-12-20T17:23:49;100887.00;;;7.90
15607;BMP180;7865;50.918;4.510;2023-12-20T17:28:50;100895.00;;;8.00
15607;BMP180;7865;50.918;4.510;2023-12-20T17:33:52;100882.00;;;8.00
15607;BMP180;7865;50.918;4.510;2023-12-20T17:38:53;100890.00;;;8.10
15607;BMP180;7865;50.918;4.510;2023-12-20T17:43:54;100877.00;;;8.20
15607;BMP180;7865;50.918;4.510;2023-12-20T17:48:55;100856.00;;;8.20
15607;BMP180;7865;50.918;4.510;2023-12-20T17:53:57;100852.00;;;8.20
15607;BMP180;7865;50.918;4.510;2023-12-20T17:59:01;100846.00;;;8.20
15607;BMP180;7865;50.918;4.510;2023-12-20T18:04:03;100839.00;;;8.20
15607;BMP180;7865;50.918;4.510;2023-12-20T18:09:04;100830.00;;;8.10
15607;BMP180;7865;50.918;4.510;2023-12-20T18:14:05;100824.00;;;8.10
15607;BMP180;7865;50.918;4.510;2023-12-20T18:19:06;100807.00;;;8.10
15607;BMP180;7865;50.918;4.510;2023-12-20T18:24:08;100797.00;;;8.00
15607;BMP180;7865;50.918;4.510;2023-12-20T18:29:12;100792.00;;;8.00
15607;BMP180;7865;50.918;4.510;2023-12-20T18:34:14;100800.00;;;8.00
15607;BMP180;7865;50.918;4.510;2023-12-20T18:39:15;100801.00;;;8.00
15607;BMP180;7865;50.918;4.510;2023-12-20T18:44:16;100782.00;;;8.00
15607;BMP180;7865;50.918;4.510;2023-12-20T18:49:18;100789.00;;;8.00
15607;BMP180;7865;50.918;4.510;2023-12-20T18:54:19;100790.00;;;8.00
15607;BMP180;7865;50.918;4.510;2023-12-20T18:59:22;100773.00;;;8.00
15607;BMP180;7865;50.918;4.510;2023-12-20T19:04:23;100788.00;;;8.10
15607;BMP180;7865;50.918;4.510;2023-12-20T19:09:24;100798.00;;;8.10
15607;BMP180;7865;50.918;4.510;2023-12-20T19:14:25;100793.00;;;8.00
15607;BMP180;7865;50.918;4.510;2023-12-20T19:19:27;100781.00;;;8.00
15607;BMP180;7865;50.918;4.510;2023-12-20T19:24:29;100777.00;;;8.10
15607;BMP180;7865;50.918;4.510;2023-12-20T19:29:30;100778.00;;;8.20
15607;BMP180;7865;50.918;4.510;2023-12-20T19:34:31;100775.00;;;8.20
15607;BMP180;7865;50.918;4.510;2023-12-20T19:39:33;100773.00;;;8.30
15607;BMP180;7865;50.918;4.510;2023-12-20T19:44:36;100745.00;;;8.30
15607;BMP180;7865;50.918;4.510;2023-12-20T19:49:37;100738.00;;;8.40
15607;BMP180;7865;50.918;4.510;2023-12-20T19:54:39;100728.00;;;8.40
15607;BMP180;7865;50.918;4.510;2023-12-20T19:59:40;100732.00;;;8.50
15607;BMP180;7865;50.918;4.510;2023-12-20T20:04:41;100695.00;;;8.50
15607;BMP180;7865;50.918;4.510;2023-12-20T20:09:42;100686.00;;;8.50
15607;BMP180;7865;50.918;4.510;2023-12-20T20:14:44;100690.00;;;8.60
15607;BMP180;7865;50.918;4.510;2023-12-20T20:19:45;100691.00;;;8.60
15607;BMP180;7865;50.918;4.510;2023-12-20T20:24:46;100700.00;;;8.60
15607;BMP180;7865;50.918;4.510;2023-12-20T20:29:51;100702.00;;;8.70
15607;BMP180;7865;50.918;4.510;2023-12-20T20:34:53;100691.00;;;8.70
15607;BMP180;7865;50.918;4.510;2023-12-20T20:39:54;100677.00;;;8.70
15607;BMP180;7865;50.918;4.510;2023-12-20T20:44:55;100680.00;;;8.70
15607;BMP180;7865;50.918;4.510;2023-12-20T20:49:56;100680.00;;;8.80
15607;BMP180;7865;50.918;4.510;2023-12-20T20:54:58;100680.00;;;8.80
15607;BMP180;7865;50.918;4.510;2023-12-20T20:59:59;100677.00;;;8.80
15607;BMP180;7865;50.918;4.510;2023-12-20T21:05:02;100668.00;;;8.80
15607;BMP180;7865;50.918;4.510;2023-12-20T21:10:05;100660.00;;;8.90
15607;BMP180;7865;50.918;4.510;2023-12-20T21:15:07;100660.00;;;8.80
15607;BMP180;7865;50.918;4.510;2023-12-20T21:20:11;100653.00;;;8.80
15607;BMP180;7865;50.918;4.510;2023-12-20T21:25:13;100657.00;;;8.80
15607;BMP180;7865;50.918;4.510;2023-12-20T21:30:15;100655.00;;;8.80
15607;BMP180;7865;50.918;4.510;2023-12-20T21:35:16;100625.00;;;8.80
15607;BMP180;7865;50.918;4.510;2023-12-20T21:40:17;100633.00;;;8.80
15607;BMP180;7865;50.918;4.510;2023-12-20T21:45:18;100621.00;;;8.80
15607;BMP180;7865;50.918;4.510;2023-12-20T21:50:20;100628.00;;;8.90
15607;BMP180;7865;50.918;4.510;2023-12-20T21:55:22;100616.00;;;8.90
15607;BMP180;7865;50.918;4.510;2023-12-20T22:00:24;100597.00;;;8.90
15607;BMP180;7865;50.918;4.510;2023-12-20T22:05:25;100602.00;;;8.90
15607;BMP180;7865;50.918;4.510;2023-12-20T22:10:26;100597.00;;;9.00
15607;BMP180;7865;50.918;4.510;2023-12-20T22:15:27;100590.00;;;9.00
15607;BMP180;7865;50.918;4.510;2023-12-20T22:20:28;100591.00;;;9.10
15607;BMP180;7865;50.918;4.510;2023-12-20T22:25:32;100601.00;;;9.10
15607;BMP180;7865;50.918;4.510;2023-12-20T22:30:33;100588.00;;;9.20
15607;BMP180;7865;50.918;4.510;2023-12-20T22:35:34;100577.00;;;9.20
15607;BMP180;7865;50.918;4.510;2023-12-20T22:40:36;100592.00;;;9.20
15607;BMP180;7865;50.918;4.510;2023-12-20T22:45:37;100590.00;;;9.20
15607;BMP180;7865;50.918;4.510;2023-12-20T22:50:41;100580.00;;;9.30
15607;BMP180;7865;50.918;4.510;2023-12-20T22:55:42;100590.00;;;9.30
15607;BMP180;7865;50.918;4.510;2023-12-20T23:00:44;100586.00;;;9.40
15607;BMP180;7865;50.918;4.510;2023-12-20T23:05:45;100575.00;;;9.40
15607;BMP180;7865;50.918;4.510;2023-12-20T23:10:46;100565.00;;;9.40
15607;BMP180;7865;50.918;4.510;2023-12-20T23:15:47;100565.00;;;9.40
15607;BMP180;7865;50.918;4.510;2023-12-20T23:20:49;100555.00;;;9.50
15607;BMP180;7865;50.918;4.510;2023-12-20T23:25:51;100555.00;;;9.40
15607;BMP180;7865;50.918;4.510;2023-12-20T23:30:52;100559.00;;;9.50
15607;BMP180;7865;50.918;4.510;2023-12-20T23:35:54;100546.00;;;9.50
15607;BMP180;7865;50.918;4.510;2023-12-20T23:40:55;100535.00;;;9.50
15607;BMP180;7865;50.918;4.510;2023-12-20T23:45:56;100536.00;;;9.50
15607;BMP180;7865;50.918;4.510;2023-12-20T23:50:58;100528.00;;;9.50
15607;BMP180;7865;50.918;4.510;2023-12-20T23:55:59;100512.00;;;9.50
